createdAt,value
2019-02-22T00:00:17.045Z,56.80
2019-02-22T00:02:44.320Z,69.40
2019-02-22T00:05:11.601Z,59.77
2019-02-22T00:07:39.142Z,58.37
2019-02-22T00:10:06.562Z,55.60
2019-02-22T00:12:33.809Z,61.13
2019-02-22T00:15:01.127Z,63.80
2019-02-22T00:17:28.451Z,77.60
2019-02-22T00:19:55.738Z,62.47
2019-02-22T00:22:22.992Z,61.77
2019-02-22T00:24:50.481Z,69.13
2019-02-22T00:27:17.762Z,72.27
2019-02-22T00:29:45.010Z,74.93
2019-02-22T00:32:12.263Z,72.67
2019-02-22T00:34:39.812Z,70.63
2019-02-22T00:37:07.138Z,70.17
2019-02-22T00:42:19.564Z,68.33
2019-02-22T00:44:47.106Z,63.00
2019-02-22T00:47:14.614Z,70.53
2019-02-22T00:49:41.862Z,80.47
2019-02-22T00:52:09.148Z,71.90
2019-02-22T00:54:36.667Z,68.60
2019-02-22T00:57:04.176Z,65.73
2019-02-22T00:59:31.522Z,69.80
2019-02-22T01:01:58.841Z,69.97
2019-02-22T01:04:26.129Z,76.60
2019-02-22T01:06:53.372Z,68.60
2019-02-22T01:09:20.951Z,67.83
2019-02-22T01:11:48.450Z,77.20
2019-02-22T01:14:15.707Z,71.97
2019-02-22T01:16:42.989Z,74.17
2019-02-22T01:19:10.280Z,69.57
2019-02-22T01:21:37.527Z,69.03
2019-02-22T01:24:04.822Z,68.37
2019-02-22T01:26:32.354Z,71.43
2019-02-22T01:28:59.628Z,70.17
2019-02-22T01:31:26.890Z,68.07
2019-02-22T01:33:54.369Z,83.33
2019-02-22T01:36:21.980Z,68.30
2019-02-22T01:38:49.259Z,70.57
2019-02-22T01:41:16.820Z,71.93
2019-02-22T01:43:44.089Z,75.90
2019-02-22T01:46:11.592Z,78.90
2019-02-22T01:48:38.877Z,70.33
2019-02-22T01:51:06.382Z,85.23
2019-02-22T01:53:33.673Z,79.73
2019-02-22T01:56:00.915Z,73.43
2019-02-22T01:58:28.169Z,75.50
2019-02-22T02:00:55.702Z,79.73
2019-02-22T02:03:22.950Z,74.90
2019-02-22T02:05:50.231Z,77.03
2019-02-22T02:08:17.787Z,95.40
2019-02-22T02:10:53.896Z,73.83
2019-02-22T02:13:14.070Z,79.53
2019-02-22T02:15:41.611Z,83.33
2019-02-22T02:18:09.015Z,86.43
2019-02-22T02:20:36.281Z,91.10
2019-02-22T02:23:03.606Z,93.97
2019-02-22T02:25:31.138Z,78.10
2019-02-22T02:27:58.389Z,83.40
2019-02-22T02:30:25.671Z,92.10
2019-02-22T02:32:53.042Z,81.63
2019-02-22T02:35:20.290Z,82.17
2019-02-22T02:37:47.794Z,85.10
2019-02-22T02:40:15.075Z,94.13
2019-02-22T02:42:42.350Z,81.77
2019-02-22T02:45:09.673Z,85.30
2019-02-22T02:47:36.964Z,91.63
2019-02-22T02:50:05.011Z,77.70
2019-02-22T02:52:32.294Z,87.53
2019-02-22T02:54:59.551Z,77.17
2019-02-22T02:57:26.814Z,85.47
2019-02-22T02:59:54.081Z,76.40
2019-02-22T03:02:23.101Z,80.53
2019-02-22T03:04:50.633Z,92.87
2019-02-22T03:07:28.362Z,82.60
2019-02-22T03:09:55.626Z,83.53
2019-02-22T03:12:23.089Z,72.07
2019-02-22T03:14:50.337Z,77.33
2019-02-22T03:17:17.623Z,80.00
2019-02-22T03:19:44.897Z,77.70
2019-02-22T03:22:12.155Z,77.90
2019-02-22T03:24:39.427Z,72.33
2019-02-22T03:27:06.687Z,90.67
2019-02-22T03:29:33.977Z,77.17
2019-02-22T03:32:01.296Z,71.60
2019-02-22T03:34:28.844Z,81.20
2019-02-22T03:36:56.087Z,69.17
2019-02-22T03:39:23.371Z,74.27
2019-02-22T03:41:50.906Z,67.23
2019-02-22T03:44:18.433Z,74.50
2019-02-22T03:46:45.688Z,55.23
2019-02-22T03:49:12.976Z,83.27
2019-02-22T03:51:40.221Z,63.93
2019-02-22T03:54:07.511Z,66.20
2019-02-22T03:56:34.842Z,59.83
2019-02-22T03:59:02.118Z,65.77
2019-02-22T04:01:29.379Z,72.60
2019-02-22T04:03:56.659Z,60.50
2019-02-22T04:06:24.158Z,59.33
2019-02-22T04:08:51.432Z,57.83
2019-02-22T04:11:19.004Z,62.27
2019-02-22T04:13:46.308Z,53.57
2019-02-22T04:16:13.585Z,60.20
2019-02-22T04:18:40.875Z,57.93
2019-02-22T04:21:08.150Z,48.37
2019-02-22T04:23:35.650Z,55.20
2019-02-22T04:26:02.934Z,50.50
2019-02-22T04:28:30.264Z,51.53
2019-02-22T04:30:57.531Z,50.77
2019-02-22T04:33:24.883Z,49.83
2019-02-22T04:35:52.158Z,54.60
2019-02-22T04:38:19.435Z,54.80
2019-02-22T04:40:46.688Z,63.53
2019-02-22T04:43:14.223Z,51.43
2019-02-22T04:45:41.510Z,47.13
2019-02-22T04:48:08.789Z,49.73
2019-02-22T04:50:36.514Z,53.60
2019-02-22T04:53:03.950Z,47.30
2019-02-22T04:55:31.197Z,54.70
2019-02-22T04:57:58.476Z,46.83
2019-02-22T05:00:25.730Z,44.00
2019-02-22T05:02:52.997Z,57.60
2019-02-22T05:05:20.324Z,53.07
2019-02-22T05:07:47.691Z,51.60
2019-02-22T05:10:14.998Z,51.83
2019-02-22T05:12:42.502Z,45.93
2019-02-22T05:15:12.947Z,49.47
2019-02-22T05:17:39.018Z,48.20
2019-02-22T05:20:06.305Z,45.97
2019-02-22T05:22:33.592Z,48.07
2019-02-22T05:25:01.092Z,48.60
2019-02-22T05:27:28.396Z,55.33
2019-02-22T05:29:55.647Z,45.53
2019-02-22T05:32:22.911Z,39.10
2019-02-22T05:34:50.186Z,38.97
2019-02-22T05:37:17.693Z,45.83
2019-02-22T05:39:45.226Z,42.53
2019-02-22T05:42:22.438Z,40.43
2019-02-22T05:44:41.748Z,40.40
2019-02-22T05:47:08.993Z,41.80
2019-02-22T05:49:36.280Z,37.60
2019-02-22T05:52:03.566Z,35.97
2019-02-22T05:54:30.830Z,33.83
2019-02-22T05:56:58.422Z,36.43
2019-02-22T05:59:25.947Z,40.87
2019-02-22T06:01:53.205Z,30.33
2019-02-22T06:04:20.486Z,34.70
2019-02-22T06:06:47.772Z,36.83
2019-02-22T06:09:15.174Z,32.00
2019-02-22T06:11:42.424Z,29.97
2019-02-22T06:14:09.991Z,32.07
2019-02-22T06:16:38.913Z,32.90
2019-02-22T06:19:06.247Z,29.13
2019-02-22T06:21:33.526Z,28.70
2019-02-22T06:24:02.719Z,28.20
2019-02-22T06:26:30.477Z,30.50
2019-02-22T06:28:57.814Z,30.50
2019-02-22T06:31:25.093Z,26.80
2019-02-22T06:33:52.631Z,27.60
2019-02-22T06:36:19.914Z,31.30
2019-02-22T06:38:47.248Z,26.40
2019-02-22T06:41:14.606Z,27.50
2019-02-22T06:43:42.115Z,25.10
2019-02-22T06:46:09.666Z,25.43
2019-02-22T06:48:37.029Z,28.03
2019-02-22T06:51:04.314Z,28.70
2019-02-22T06:53:31.862Z,28.37
2019-02-22T06:55:59.143Z,26.20
2019-02-22T06:58:26.393Z,23.70
2019-02-22T07:00:53.651Z,24.93
2019-02-22T07:03:20.925Z,24.90
2019-02-22T07:05:48.435Z,24.40
2019-02-22T07:08:15.720Z,27.77
2019-02-22T07:10:56.469Z,24.60
2019-02-22T07:13:24.500Z,22.30
2019-02-22T07:15:51.953Z,21.90
2019-02-22T07:18:19.237Z,24.87
2019-02-22T07:20:46.529Z,24.97
2019-02-22T07:23:13.778Z,19.90
2019-02-22T07:25:41.301Z,20.07
2019-02-22T07:28:08.586Z,22.73
2019-02-22T07:30:36.120Z,21.50
2019-02-22T07:33:03.377Z,20.90
2019-02-22T07:35:30.673Z,21.13
2019-02-22T07:37:58.256Z,20.73
2019-02-22T07:40:25.543Z,19.60
2019-02-22T07:42:53.053Z,18.57
2019-02-22T07:45:20.338Z,19.50
2019-02-22T07:47:47.670Z,17.30
2019-02-22T07:50:14.933Z,18.63
2019-02-22T07:52:45.024Z,17.30
2019-02-22T07:55:11.464Z,16.27
2019-02-22T07:57:40.051Z,16.20
2019-02-22T08:00:11.924Z,17.27
2019-02-22T08:02:39.206Z,18.80
2019-02-22T08:05:09.032Z,16.03
2019-02-22T08:07:35.759Z,16.80
2019-02-22T08:10:03.110Z,19.70
2019-02-22T08:12:30.380Z,15.27
2019-02-22T08:14:57.721Z,16.53
2019-02-22T08:17:25.116Z,16.37
2019-02-22T08:19:52.678Z,13.53
2019-02-22T08:22:20.780Z,16.17
2019-02-22T08:24:48.122Z,12.90
2019-02-22T08:27:15.400Z,8.77
2019-02-22T08:29:42.890Z,9.80
2019-02-22T08:32:10.178Z,9.17
2019-02-22T08:34:37.442Z,9.50
2019-02-22T08:37:04.724Z,9.63
2019-02-22T08:39:31.966Z,9.00
2019-02-22T08:41:59.234Z,8.07
2019-02-22T08:44:26.525Z,7.43
2019-02-22T08:46:53.832Z,6.30
2019-02-22T08:49:21.083Z,6.20
2019-02-22T08:51:48.400Z,7.00
2019-02-22T08:54:15.700Z,7.03
2019-02-22T08:56:43.053Z,5.90
2019-02-22T08:59:10.287Z,8.20
2019-02-22T09:01:37.563Z,5.83
2019-02-22T09:04:04.812Z,7.53
2019-02-22T09:06:32.074Z,7.77
2019-02-22T09:08:59.353Z,6.07
2019-02-22T09:11:26.671Z,5.80
2019-02-22T09:13:53.946Z,4.87
2019-02-22T09:16:21.186Z,6.20
2019-02-22T09:18:48.467Z,5.77
2019-02-22T09:21:15.973Z,6.60
2019-02-22T09:23:43.499Z,4.77
2019-02-22T09:26:10.995Z,5.00
2019-02-22T09:28:38.502Z,8.20
2019-02-22T09:31:05.766Z,5.43
2019-02-22T09:33:33.012Z,7.07
2019-02-22T09:36:00.536Z,7.53
2019-02-22T09:38:27.809Z,10.47
2019-02-22T09:40:55.091Z,8.70
2019-02-22T09:43:22.346Z,15.97
2019-02-22T09:45:49.584Z,8.47
2019-02-22T09:48:16.850Z,9.77
2019-02-22T09:50:44.099Z,9.67
2019-02-22T09:53:11.614Z,11.30
2019-02-22T09:55:39.115Z,9.40
2019-02-22T09:58:06.456Z,6.90
2019-02-22T10:00:33.694Z,7.63
2019-02-22T10:03:01.230Z,7.73
2019-02-22T10:05:28.549Z,6.93
2019-02-22T10:07:55.859Z,7.53
2019-02-22T10:10:23.097Z,5.80
2019-02-22T10:12:50.344Z,5.90
2019-02-22T10:15:17.689Z,4.87
2019-02-22T10:17:44.963Z,5.90
2019-02-22T10:20:12.206Z,5.17
2019-02-22T10:22:39.549Z,4.50
2019-02-22T10:25:07.205Z,3.20
2019-02-22T10:27:34.786Z,5.47
2019-02-22T10:30:02.335Z,6.03
2019-02-22T10:32:29.579Z,3.10
2019-02-22T10:34:56.843Z,2.40
2019-02-22T10:37:24.084Z,7.00
2019-02-22T10:39:51.366Z,3.97
2019-02-22T10:42:18.635Z,4.47
2019-02-22T10:44:46.134Z,3.07
2019-02-22T10:47:13.481Z,3.50
2019-02-22T10:49:40.987Z,2.63
2019-02-22T10:52:08.261Z,2.70
2019-02-22T10:54:35.760Z,5.50
2019-02-22T10:57:03.108Z,5.27
2019-02-22T10:59:30.369Z,5.40
2019-02-22T11:01:57.643Z,5.00
2019-02-22T11:04:25.179Z,4.20
2019-02-22T11:06:52.678Z,4.20
2019-02-22T11:09:20.298Z,6.10
2019-02-22T11:11:47.548Z,5.60
2019-02-22T11:14:14.813Z,4.60
2019-02-22T11:16:42.089Z,5.23
2019-02-22T11:19:09.339Z,4.10
2019-02-22T11:21:36.610Z,2.93
2019-02-22T11:24:03.922Z,3.90
2019-02-22T11:26:31.459Z,6.20
2019-02-22T11:28:58.701Z,4.37
2019-02-22T11:31:25.979Z,4.93
2019-02-22T11:33:53.227Z,4.77
2019-02-22T11:36:20.508Z,4.00
2019-02-22T11:38:47.998Z,5.80
2019-02-22T11:41:15.269Z,4.87
2019-02-22T11:43:42.782Z,5.60
2019-02-22T11:46:10.059Z,4.73
2019-02-22T11:48:37.305Z,2.30
2019-02-22T11:51:04.550Z,2.60
2019-02-22T11:53:31.826Z,2.17
2019-02-22T11:55:59.098Z,4.80
2019-02-22T11:58:26.416Z,3.10
2019-02-22T12:00:53.698Z,2.47
2019-02-22T12:03:24.771Z,2.40
2019-02-22T12:05:49.933Z,3.30
2019-02-22T12:08:17.174Z,4.07
2019-02-22T12:10:44.458Z,3.27
2019-02-22T12:13:11.805Z,2.63
2019-02-22T12:15:39.051Z,2.63
2019-02-22T12:18:06.568Z,6.67
2019-02-22T12:20:33.838Z,2.73
2019-02-22T12:23:01.111Z,3.27
2019-02-22T12:25:28.395Z,1.80
2019-02-22T12:27:55.633Z,3.80
2019-02-22T12:30:25.562Z,18.23
2019-02-22T12:32:52.414Z,2.83
2019-02-22T12:35:19.937Z,3.23
2019-02-22T12:37:47.176Z,4.40
2019-02-22T12:40:14.738Z,4.13
2019-02-22T12:42:42.280Z,4.33
2019-02-22T12:45:11.063Z,4.27
2019-02-22T12:47:38.347Z,3.70
2019-02-22T12:50:07.178Z,3.47
2019-02-22T12:52:34.427Z,2.77
2019-02-22T12:55:01.958Z,3.20
2019-02-22T12:57:29.201Z,3.37
2019-02-22T12:59:56.475Z,4.43
2019-02-22T13:02:23.967Z,4.80
2019-02-22T13:04:51.495Z,2.93
2019-02-22T13:07:18.740Z,2.83
2019-02-22T13:09:46.013Z,3.30
2019-02-22T13:12:15.379Z,4.53
2019-02-22T13:14:42.466Z,4.13
2019-02-22T13:17:09.744Z,4.33
2019-02-22T13:19:37.010Z,5.33
2019-02-22T13:22:04.277Z,5.27
2019-02-22T13:24:31.558Z,5.60
2019-02-22T13:26:58.806Z,6.30
2019-02-22T13:29:26.054Z,9.53
2019-02-22T13:31:53.469Z,5.60
2019-02-22T13:34:20.967Z,8.90
2019-02-22T13:36:48.233Z,10.30
2019-02-22T13:39:15.474Z,6.40
2019-02-22T13:41:42.753Z,6.03
2019-02-22T13:44:10.002Z,8.03
2019-02-22T13:46:37.309Z,7.93
2019-02-22T13:49:05.041Z,5.60
2019-02-22T13:51:34.084Z,11.60
2019-02-22T13:54:01.492Z,8.20
2019-02-22T13:56:29.911Z,16.27
2019-02-22T13:58:57.351Z,11.43
2019-02-22T14:01:24.628Z,20.83
2019-02-22T14:03:52.178Z,9.23
2019-02-22T14:06:19.461Z,51.93
2019-02-22T14:08:47.018Z,22.47
2019-02-22T14:11:14.601Z,39.93
2019-02-22T14:13:42.175Z,59.50
2019-02-22T14:16:09.489Z,84.27
2019-02-22T14:18:36.875Z,59.00
2019-02-22T14:21:04.131Z,13.83
2019-02-22T14:23:31.373Z,10.10
2019-02-22T14:25:58.729Z,5.70
2019-02-22T14:28:26.264Z,8.77
2019-02-22T14:30:53.788Z,5.23
2019-02-22T14:33:21.031Z,5.47
2019-02-22T14:35:48.281Z,17.17
2019-02-22T14:38:15.581Z,50.90
2019-02-22T14:40:42.946Z,9.13
2019-02-22T14:43:16.690Z,35.07
2019-02-22T14:45:48.746Z,10.10
2019-02-22T14:48:09.099Z,13.60
2019-02-22T14:50:36.417Z,46.03
2019-02-22T14:53:03.701Z,53.17
2019-02-22T14:55:30.958Z,47.53
2019-02-22T14:57:58.210Z,21.90
2019-02-22T15:00:25.477Z,8.10
2019-02-22T15:02:52.822Z,6.03
2019-02-22T15:05:20.068Z,6.70
2019-02-22T15:07:47.342Z,7.17
2019-02-22T15:10:14.880Z,6.30
2019-02-22T15:12:42.384Z,5.60
2019-02-22T15:15:16.521Z,5.70
2019-02-22T15:17:54.475Z,6.40
2019-02-22T15:20:21.762Z,5.97
2019-02-22T15:22:49.002Z,6.43
2019-02-22T15:25:16.728Z,7.23
2019-02-22T15:27:44.060Z,8.10
2019-02-22T15:30:12.466Z,8.50
2019-02-22T15:32:39.723Z,12.40
2019-02-22T15:35:10.927Z,6.87
2019-02-22T15:37:38.170Z,6.73
2019-02-22T15:40:07.281Z,8.50
2019-02-22T15:42:34.558Z,6.23
2019-02-22T15:45:01.843Z,8.27
2019-02-22T15:47:29.091Z,9.90
2019-02-22T15:49:56.581Z,7.27
2019-02-22T15:52:23.872Z,10.13
2019-02-22T15:54:51.375Z,8.87
2019-02-22T15:57:18.626Z,11.30
2019-02-22T15:59:45.906Z,11.40
2019-02-22T16:02:13.156Z,10.43
2019-02-22T16:04:45.205Z,8.87
2019-02-22T16:07:11.200Z,12.67
2019-02-22T16:09:38.707Z,11.90
2019-02-22T16:12:05.986Z,12.77
2019-02-22T16:14:33.258Z,11.50
2019-02-22T16:17:00.598Z,13.93
2019-02-22T16:19:28.099Z,13.67
2019-02-22T16:21:55.370Z,13.13
2019-02-22T16:24:22.878Z,11.63
2019-02-22T16:26:51.788Z,12.33
2019-02-22T16:29:19.045Z,10.93
2019-02-22T16:31:46.381Z,12.37
2019-02-22T16:34:13.897Z,16.10
2019-02-22T16:36:41.162Z,14.83
2019-02-22T16:39:08.414Z,13.20
2019-02-22T16:41:35.697Z,12.30
2019-02-22T16:44:02.967Z,12.63
2019-02-22T16:46:34.856Z,11.30
2019-02-22T16:48:59.258Z,14.60
2019-02-22T16:51:26.807Z,12.07
2019-02-22T16:53:54.057Z,16.43
2019-02-22T16:56:21.303Z,12.03
2019-02-22T16:58:48.580Z,10.70
2019-02-22T17:01:16.085Z,10.13
2019-02-22T17:03:43.354Z,13.30
2019-02-22T17:06:10.634Z,11.67
2019-02-22T17:08:37.883Z,13.47
2019-02-22T17:11:05.161Z,14.80
2019-02-22T17:13:32.409Z,14.13
2019-02-22T17:15:59.690Z,13.20
2019-02-22T17:18:26.942Z,13.70
2019-02-22T17:20:54.213Z,12.90
2019-02-22T17:23:21.751Z,13.00
2019-02-22T17:25:49.027Z,11.90
2019-02-22T17:28:16.283Z,17.00
2019-02-22T17:30:43.559Z,11.70
2019-02-22T17:33:10.829Z,16.80
2019-02-22T17:35:38.083Z,14.97
2019-02-22T17:38:05.330Z,13.73
2019-02-22T17:40:32.882Z,11.87
2019-02-22T17:43:00.411Z,13.70
2019-02-22T17:45:27.943Z,17.43
2019-02-22T17:47:55.217Z,13.20
2019-02-22T17:50:22.492Z,14.70
2019-02-22T17:52:49.754Z,15.53
2019-02-22T17:55:17.006Z,13.10
2019-02-22T17:57:44.294Z,12.63
2019-02-22T18:00:16.311Z,11.40
2019-02-22T18:02:43.880Z,11.20
2019-02-22T18:05:11.154Z,11.50
2019-02-22T18:07:38.403Z,11.90
2019-02-22T18:10:07.258Z,14.20
2019-02-22T18:12:34.764Z,14.23
2019-02-22T18:15:02.051Z,11.80
2019-02-22T18:17:29.328Z,11.33
2019-02-22T18:19:56.578Z,11.30
2019-02-22T18:22:26.046Z,11.23
2019-02-22T18:24:53.084Z,14.57
2019-02-22T18:27:20.347Z,12.53
2019-02-22T18:29:47.637Z,14.50
2019-02-22T18:32:14.910Z,12.57
2019-02-22T18:34:42.181Z,13.13
2019-02-22T18:37:09.435Z,13.53
2019-02-22T18:39:36.721Z,12.47
2019-02-22T18:42:04.220Z,11.40
2019-02-22T18:44:31.755Z,13.90
2019-02-22T18:46:58.999Z,12.30
2019-02-22T18:49:26.279Z,13.30
2019-02-22T18:51:53.527Z,10.97
2019-02-22T18:54:20.802Z,11.30
2019-02-22T18:56:48.150Z,13.00
2019-02-22T18:59:15.871Z,10.47
2019-02-22T19:01:43.146Z,12.37
2019-02-22T19:04:10.393Z,17.23
2019-02-22T19:06:37.670Z,9.77
2019-02-22T19:09:05.486Z,19.40
2019-02-22T19:11:32.814Z,14.43
2019-02-22T19:14:00.096Z,13.37
2019-02-22T19:16:27.365Z,12.63
2019-02-22T19:18:54.618Z,11.73
2019-02-22T19:21:21.901Z,13.20
2019-02-22T19:23:49.406Z,11.17
2019-02-22T19:26:16.654Z,11.60
2019-02-22T19:28:43.925Z,12.27
2019-02-22T19:31:11.173Z,14.00
2019-02-22T19:33:38.454Z,12.70
2019-02-22T19:36:05.705Z,13.10
2019-02-22T19:38:32.980Z,13.20
2019-02-22T19:41:00.222Z,12.93
2019-02-22T19:43:27.787Z,10.03
2019-02-22T19:45:55.034Z,16.20
2019-02-22T19:48:22.310Z,12.33
2019-02-22T19:50:49.553Z,14.87
2019-02-22T19:53:16.834Z,11.63
2019-02-22T19:55:44.089Z,13.43
2019-02-22T19:58:11.625Z,10.60
2019-02-22T20:00:38.945Z,13.23
2019-02-22T20:03:06.200Z,10.47
2019-02-22T20:05:33.463Z,23.63
2019-02-22T20:08:00.711Z,12.90
2019-02-22T20:10:28.253Z,11.60
2019-02-22T20:12:55.515Z,12.33
2019-02-22T20:15:23.051Z,12.67
2019-02-22T20:17:54.453Z,9.80
2019-02-22T20:20:19.726Z,12.83
2019-02-22T20:22:47.266Z,14.10
2019-02-22T20:25:14.523Z,14.23
2019-02-22T20:27:41.835Z,12.30
2019-02-22T20:30:10.653Z,13.20
2019-02-22T20:32:37.943Z,13.30
2019-02-22T20:35:06.736Z,13.70
2019-02-22T20:37:34.010Z,10.90
2019-02-22T20:40:01.286Z,17.27
2019-02-22T20:42:28.564Z,18.47
2019-02-22T20:44:55.838Z,17.70
2019-02-22T20:47:23.096Z,12.33
2019-02-22T20:49:50.617Z,11.43
2019-02-22T20:52:18.130Z,11.67
2019-02-22T20:54:45.405Z,16.70
2019-02-22T20:57:12.649Z,14.03
2019-02-22T20:59:39.927Z,18.63
2019-02-22T21:02:07.205Z,13.17
2019-02-22T21:04:34.714Z,12.33
2019-02-22T21:07:02.037Z,14.60
2019-02-22T21:09:29.322Z,15.10
2019-02-22T21:11:56.573Z,12.47
2019-02-22T21:14:23.822Z,15.53
2019-02-22T21:16:51.350Z,13.60
2019-02-22T21:19:18.623Z,13.20
2019-02-22T21:21:46.122Z,13.97
2019-02-22T21:24:13.404Z,14.43
2019-02-22T21:26:40.910Z,14.10
2019-02-22T21:29:08.158Z,14.33
2019-02-22T21:31:35.434Z,13.57
2019-02-22T21:34:02.968Z,17.90
2019-02-22T21:36:30.455Z,14.73
2019-02-22T21:38:57.990Z,14.07
2019-02-22T21:41:25.497Z,14.80
2019-02-22T21:43:53.055Z,16.70
2019-02-22T21:46:20.550Z,15.83
2019-02-22T21:48:47.794Z,15.10
2019-02-22T21:51:15.331Z,13.97
2019-02-22T21:53:42.620Z,14.43
2019-02-22T21:56:09.866Z,16.07
2019-02-22T21:58:37.108Z,14.20
2019-02-22T22:01:04.654Z,14.37
2019-02-22T22:03:31.899Z,14.87
2019-02-22T22:05:59.166Z,14.63
2019-02-22T22:08:26.419Z,11.83
2019-02-22T22:10:53.700Z,14.20
2019-02-22T22:13:20.973Z,16.40
2019-02-22T22:15:48.515Z,13.90
2019-02-22T22:18:15.797Z,20.50
2019-02-22T22:20:43.037Z,13.20
2019-02-22T22:23:10.322Z,16.97
2019-02-22T22:25:37.575Z,15.53
2019-02-22T22:28:04.854Z,15.03
2019-02-22T22:30:32.102Z,14.20
2019-02-22T22:32:59.392Z,18.07
2019-02-22T22:35:26.646Z,17.00
2019-02-22T22:37:53.931Z,19.70
2019-02-22T22:40:21.173Z,14.73
2019-02-22T22:42:48.452Z,14.43
2019-02-22T22:45:16.368Z,17.17
2019-02-22T22:47:43.997Z,14.00
2019-02-22T22:50:14.734Z,16.53
2019-02-22T22:52:42.283Z,14.70
2019-02-22T22:55:10.179Z,16.77
2019-02-22T22:57:37.459Z,13.27
2019-02-22T23:00:06.611Z,13.67
2019-02-22T23:02:33.970Z,14.37
2019-02-22T23:05:01.251Z,13.67
2019-02-22T23:07:28.564Z,12.00
2019-02-22T23:09:55.843Z,13.10
2019-02-22T23:12:23.090Z,13.03
2019-02-22T23:14:50.367Z,11.00
2019-02-22T23:17:17.886Z,12.47
2019-02-22T23:19:45.133Z,10.57
2019-02-22T23:22:12.417Z,11.03
2019-02-22T23:24:39.922Z,9.50
2019-02-22T23:27:07.202Z,10.67
2019-02-22T23:29:34.478Z,11.43
2019-02-22T23:32:01.721Z,13.33
2019-02-22T23:34:28.999Z,9.30
2019-02-22T23:36:56.254Z,10.50
2019-02-22T23:39:23.533Z,12.23
2019-02-22T23:41:50.783Z,11.17
2019-02-22T23:44:18.055Z,9.83
2019-02-22T23:46:45.647Z,9.40
2019-02-22T23:49:13.530Z,13.40
2019-02-22T23:51:40.814Z,10.17
2019-02-22T23:54:08.090Z,9.63
2019-02-22T23:56:35.588Z,9.90
2019-02-22T23:59:02.834Z,9.37
